Terminal Aerodrome Forecast
Issued by NWS

Home | Current Version | Previous Version | Text Only | Print | Product List | Glossary On
Versions: 1 2 3 4 5 6 7 8 9 10 11 12 13 14 15 16 17 18 19 20
000
FTUS41 KALY 290229 AAA
TAFPSF
TAF AMD
KPSF 290229Z 2902/2924 07008G14KT P6SM SCT015 OVC025
      TEMPO 2902/2906 BKN015 OVC025
     FM291500 07010KT P6SM SCT015 BKN025
     FM291700 09012G17KT P6SM SCT030 BKN200=

USA.gov is the U.S. government's official web portal to all federal, state and local government web resources and services.